Time;durP1;ratioP1;P1;durP2;ratioP2;P2;SDS_P1;SDS_P2;PMS_P1;PMS_P2;Temp;Humidity;BMP_temperature;BMP_pressure;BME280_temperature;BME280_humidity;BME280_pressure;Samples;Min_cycle;Max_cycle;Signal;HPM_P1;HPM_P2
2023/08/02 00:00:56;;;;;;;5.47;2.40;;;17.70;68.90;;;;;;5054923;28;20514;-73
2023/08/02 00:03:21;;;;;;;3.77;2.00;;;17.60;69.10;;;;;;5063982;28;20422;-75
2023/08/02 00:05:56;;;;;;;3.23;2.20;;;17.70;69.20;;;;;;5062748;28;20445;-74
2023/08/02 00:08:22;;;;;;;4.73;2.50;;;17.70;69.10;;;;;;5056104;28;20657;-72
2023/08/02 00:10:48;;;;;;;5.67;2.57;;;17.70;69.20;;;;;;5055925;28;20887;-74
2023/08/02 00:13:14;;;;;;;4.90;2.50;;;17.80;68.90;;;;;;5059872;28;20466;-73
2023/08/02 00:15:40;;;;;;;5.03;2.30;;;17.90;68.60;;;;;;5064458;28;20213;-73
2023/08/02 00:18:06;;;;;;;6.30;2.07;;;17.80;68.80;;;;;;5065568;28;20206;-75
2023/08/02 00:20:32;;;;;;;4.70;2.80;;;17.70;68.90;;;;;;5057587;28;21024;-75
2023/08/02 00:22:58;;;;;;;7.13;2.60;;;17.70;69.10;;;;;;5062475;28;20522;-77
2023/08/02 00:25:24;;;;;;;3.83;2.07;;;17.90;69.10;;;;;;5063908;28;20200;-74
2023/08/02 00:27:50;;;;;;;2.80;2.10;;;18.00;68.80;;;;;;5054580;28;20203;-75
2023/08/02 00:30:15;;;;;;;5.00;2.17;;;18.00;68.80;;;;;;5051345;28;21075;-75
2023/08/02 00:32:45;;;;;;;10.70;2.80;;;18.00;68.80;;;;;;5065110;28;20689;-75
2023/08/02 00:35:10;;;;;;;3.00;1.83;;;18.10;68.80;;;;;;5065291;28;20630;-75
2023/08/02 00:37:36;;;;;;;3.23;2.07;;;18.10;68.60;;;;;;5060187;28;20455;-75
2023/08/02 00:40:03;;;;;;;7.20;2.00;;;18.00;68.80;;;;;;5049759;28;20584;-75
2023/08/02 00:42:29;;;;;;;5.60;2.40;;;18.00;68.90;;;;;;5055059;28;20184;-76
2023/08/02 00:44:55;;;;;;;4.00;1.90;;;18.00;68.90;;;;;;5069488;28;20439;-75
2023/08/02 00:47:20;;;;;;;5.33;2.43;;;18.00;68.90;;;;;;5064855;28;20341;-76
2023/08/02 00:49:46;;;;;;;3.87;2.00;;;18.10;69.10;;;;;;5047489;28;20192;-77
2023/08/02 00:52:12;;;;;;;4.00;2.60;;;18.10;69.10;;;;;;5045808;28;20279;-75
2023/08/02 00:54:39;;;;;;;3.27;1.97;;;18.10;69.10;;;;;;5063132;28;20339;-74
2023/08/02 00:57:05;;;;;;;4.50;2.70;;;18.00;69.20;;;;;;5067999;28;20669;-74
2023/08/02 00:59:30;;;;;;;3.20;2.10;;;18.00;69.20;;;;;;5055170;28;20479;-74
2023/08/02 01:01:57;;;;;;;5.27;2.47;;;18.00;69.40;;;;;;5048040;28;20207;-75
2023/08/02 01:04:22;;;;;;;4.77;2.43;;;17.90;69.50;;;;;;5055325;28;20564;-73
2023/08/02 01:07:02;;;;;;;4.30;2.30;;;17.90;69.50;;;;;;5051248;28;20553;-75
2023/08/02 01:09:30;;;;;;;2.83;1.90;;;17.70;69.70;;;;;;5050033;28;20225;-75
2023/08/02 01:12:23;;;;;;;3.50;2.17;;;17.70;69.70;;;;;;5049652;28;20463;-74
2023/08/02 01:14:56;;;;;;;2.53;1.93;;;17.70;69.80;;;;;;5052765;28;20438;-74
2023/08/02 01:17:24;;;;;;;6.10;2.23;;;17.60;69.90;;;;;;5051232;28;20502;-75
2023/08/02 01:19:49;;;;;;;3.33;2.13;;;17.50;70.10;;;;;;5049980;28;20485;-74
2023/08/02 01:22:15;;;;;;;5.60;2.63;;;17.50;70.20;;;;;;5050273;28;20439;-75
2023/08/02 01:24:41;;;;;;;8.77;3.13;;;17.40;70.40;;;;;;5065424;28;20701;-76
2023/08/02 01:27:16;;;;;;;5.13;2.83;;;17.40;70.50;;;;;;5067462;28;20188;-74
2023/08/02 01:29:47;;;;;;;3.73;2.33;;;17.30;70.70;;;;;;5058888;28;20213;-74
2023/08/02 01:32:15;;;;;;;9.43;2.43;;;17.30;70.70;;;;;;5060366;28;20626;-75
2023/08/02 01:34:41;;;;;;;4.73;2.30;;;17.20;70.80;;;;;;5054224;28;20518;-74
2023/08/02 01:37:06;;;;;;;3.30;2.20;;;17.20;70.80;;;;;;5054403;28;20427;-75
2023/08/02 01:39:32;;;;;;;6.87;2.93;;;17.10;71.10;;;;;;5049693;28;21077;-74
2023/08/02 01:41:58;;;;;;;4.37;2.27;;;17.10;71.30;;;;;;5052722;28;20556;-73
2023/08/02 01:44:23;;;;;;;6.70;2.63;;;17.10;71.30;;;;;;5058899;28;20438;-73
2023/08/02 01:46:49;;;;;;;4.47;2.40;;;17.00;71.40;;;;;;5054637;28;21105;-74
2023/08/02 01:49:15;;;;;;;5.50;2.47;;;17.00;71.70;;;;;;5060887;28;20565;-73
2023/08/02 01:51:40;;;;;;;3.43;1.97;;;16.90;72.00;;;;;;5051633;28;20575;-73
2023/08/02 01:54:06;;;;;;;3.63;2.30;;;16.90;72.10;;;;;;5059229;28;20196;-73
2023/08/02 01:56:31;;;;;;;4.60;2.53;;;16.90;72.40;;;;;;5062910;28;20206;-73
2023/08/02 01:58:57;;;;;;;5.97;2.13;;;16.80;72.40;;;;;;5051068;28;20258;-73
2023/08/02 02:01:22;;;;;;;4.63;2.47;;;16.80;72.60;;;;;;5046021;28;20257;-73
2023/08/02 02:03:48;;;;;;;5.70;2.17;;;16.80;72.60;;;;;;5053245;28;20192;-73
2023/08/02 02:06:13;;;;;;;6.10;2.20;;;16.80;72.60;;;;;;5051430;28;20948;-74
2023/08/02 02:08:39;;;;;;;4.23;1.90;;;16.80;72.40;;;;;;5062913;28;20286;-73
2023/08/02 02:11:05;;;;;;;4.10;2.40;;;16.90;72.40;;;;;;5046040;28;20211;-74
2023/08/02 02:13:30;;;;;;;3.87;2.10;;;16.90;72.10;;;;;;5056187;28;20187;-73
2023/08/02 02:15:56;;;;;;;3.93;2.10;;;16.90;72.00;;;;;;5056107;28;20649;-74
2023/08/02 02:18:21;;;;;;;6.20;2.80;;;16.90;72.00;;;;;;5059610;28;20313;-75
2023/08/02 02:20:47;;;;;;;4.40;2.83;;;17.00;71.80;;;;;;5043348;28;20249;-74
2023/08/02 02:23:12;;;;;;;4.87;2.30;;;17.00;71.80;;;;;;5054794;28;20260;-74
2023/08/02 02:25:38;;;;;;;7.40;3.60;;;17.00;71.60;;;;;;5067649;28;20199;-74
2023/08/02 02:28:04;;;;;;;4.03;2.00;;;17.10;71.40;;;;;;5062075;28;20224;-75
2023/08/02 02:30:30;;;;;;;3.67;2.20;;;17.10;71.30;;;;;;5053664;28;20227;-72
2023/08/02 02:32:56;;;;;;;5.37;2.70;;;17.10;71.30;;;;;;5068650;28;20196;-74
2023/08/02 02:35:21;;;;;;;6.37;2.30;;;17.10;71.10;;;;;;5064036;28;20446;-73
2023/08/02 02:37:47;;;;;;;4.23;2.20;;;17.20;71.10;;;;;;5057804;28;20192;-73
2023/08/02 02:40:13;;;;;;;6.00;2.43;;;17.20;71.00;;;;;;5057055;28;20236;-74
2023/08/02 02:42:40;;;;;;;4.47;2.67;;;17.10;71.00;;;;;;5057752;28;20195;-73
2023/08/02 02:45:07;;;;;;;5.03;2.30;;;17.10;71.10;;;;;;5054256;28;20716;-73
2023/08/02 02:47:32;;;;;;;4.63;2.47;;;17.10;71.10;;;;;;5050850;28;20431;-73
2023/08/02 02:49:58;;;;;;;5.77;2.00;;;17.20;70.80;;;;;;5051031;28;20445;-72
2023/08/02 02:52:23;;;;;;;4.03;2.00;;;17.20;70.70;;;;;;5056544;28;20547;-73
2023/08/02 02:54:49;;;;;;;6.10;2.00;;;17.20;70.50;;;;;;5062327;28;20192;-73
2023/08/02 02:57:16;;;;;;;4.83;2.30;;;17.20;70.40;;;;;;5062701;28;20191;-74
2023/08/02 02:59:42;;;;;;;4.27;2.13;;;17.20;70.20;;;;;;5062889;28;20755;-75
2023/08/02 03:02:08;;;;;;;7.20;2.47;;;17.20;70.40;;;;;;5052655;28;20629;-72
2023/08/02 03:04:33;;;;;;;3.30;1.93;;;17.20;70.40;;;;;;5052741;28;20655;-72
2023/08/02 03:06:59;;;;;;;3.40;2.47;;;17.20;70.20;;;;;;5053647;28;20191;-73
2023/08/02 03:09:24;;;;;;;2.97;2.20;;;17.20;70.20;;;;;;5052291;28;20196;-73
2023/08/02 03:11:50;;;;;;;7.07;2.20;;;17.30;70.10;;;;;;5052227;28;20207;-73
2023/08/02 03:14:16;;;;;;;6.07;2.00;;;17.30;69.90;;;;;;5059376;28;20723;-75
2023/08/02 03:16:44;;;;;;;3.50;2.13;;;17.30;69.80;;;;;;5070210;28;20202;-74
2023/08/02 03:19:11;;;;;;;7.37;2.50;;;17.40;69.80;;;;;;5055014;28;20678;-75
2023/08/02 03:21:37;;;;;;;3.40;2.27;;;17.40;69.50;;;;;;5048152;28;20841;-74
2023/08/02 03:24:02;;;;;;;4.20;2.50;;;17.40;69.20;;;;;;5053060;28;20423;-75
2023/08/02 03:26:28;;;;;;;4.43;2.20;;;17.50;69.10;;;;;;5042446;28;20648;-74
2023/08/02 03:28:54;;;;;;;4.40;2.67;;;17.50;68.90;;;;;;5064831;28;20190;-74
2023/08/02 03:31:20;;;;;;;3.30;1.93;;;17.60;68.80;;;;;;5055745;28;20211;-74
2023/08/02 03:33:45;;;;;;;5.37;2.10;;;17.60;68.80;;;;;;5058336;28;20219;-74
2023/08/02 03:36:11;;;;;;;4.20;2.33;;;17.60;68.60;;;;;;5062030;28;20609;-74
2023/08/02 03:38:37;;;;;;;7.63;2.70;;;17.60;68.60;;;;;;5063669;28;20196;-73
2023/08/02 03:41:02;;;;;;;6.03;2.57;;;17.60;68.50;;;;;;5054654;28;20233;-73
2023/08/02 03:43:28;;;;;;;3.60;2.10;;;17.70;68.50;;;;;;5057470;28;20227;-73
2023/08/02 03:45:53;;;;;;;4.00;2.30;;;17.70;68.50;;;;;;5053292;28;20247;-74
2023/08/02 03:48:19;;;;;;;6.03;2.30;;;17.70;68.30;;;;;;5058833;28;20748;-73
2023/08/02 03:50:45;;;;;;;4.60;2.30;;;17.70;68.20;;;;;;5047260;28;20228;-74
2023/08/02 03:53:10;;;;;;;7.57;2.30;;;17.70;68.20;;;;;;5051950;28;20196;-74
2023/08/02 03:55:36;;;;;;;4.30;2.30;;;17.70;68.20;;;;;;5059519;28;20833;-75
2023/08/02 03:58:02;;;;;;;3.07;2.07;;;17.80;68.20;;;;;;5068962;28;20237;-74
2023/08/02 04:00:27;;;;;;;2.77;2.07;;;17.70;68.00;;;;;;5060068;28;20221;-74
2023/08/02 04:02:54;;;;;;;3.10;2.03;;;17.70;68.20;;;;;;5062615;28;20238;-74
2023/08/02 04:05:20;;;;;;;3.37;1.93;;;17.70;68.00;;;;;;5059759;28;20199;-74
2023/08/02 04:07:45;;;;;;;4.87;3.03;;;17.70;68.00;;;;;;5056430;28;20426;-73
2023/08/02 04:10:11;;;;;;;2.80;1.70;;;17.80;67.90;;;;;;5062713;28;20219;-74
2023/08/02 04:12:37;;;;;;;6.33;2.90;;;17.80;67.90;;;;;;5061757;28;20513;-73
2023/08/02 04:15:03;;;;;;;4.27;2.43;;;17.80;68.00;;;;;;5056854;28;20559;-75
2023/08/02 04:17:29;;;;;;;4.37;2.50;;;17.80;67.90;;;;;;5052479;28;20551;-74
2023/08/02 04:19:54;;;;;;;6.77;3.53;;;17.80;67.90;;;;;;5050416;28;20481;-74
2023/08/02 04:22:20;;;;;;;3.80;2.37;;;17.80;68.00;;;;;;5054734;28;20184;-74
2023/08/02 04:24:47;;;;;;;2.80;2.13;;;17.80;68.30;;;;;;5056742;28;20283;-73
2023/08/02 04:27:12;;;;;;;5.73;2.70;;;17.70;68.80;;;;;;5060575;28;20500;-72
2023/08/02 04:29:38;;;;;;;7.10;2.40;;;17.70;69.20;;;;;;5063641;28;20434;-72
2023/08/02 04:32:04;;;;;;;9.40;2.77;;;17.70;69.50;;;;;;5049559;28;20720;-73
2023/08/02 04:34:30;;;;;;;3.90;2.20;;;17.60;70.40;;;;;;5055769;28;20256;-72
2023/08/02 04:36:55;;;;;;;4.13;2.70;;;17.50;71.10;;;;;;5053507;28;20853;-73
2023/08/02 04:39:21;;;;;;;4.17;2.50;;;17.30;71.70;;;;;;5060678;28;20588;-72
2023/08/02 04:41:46;;;;;;;4.27;2.80;;;17.20;72.40;;;;;;5047481;28;20243;-72
2023/08/02 04:44:12;;;;;;;4.20;2.47;;;17.10;73.00;;;;;;5055098;28;20555;-74
2023/08/02 04:46:38;;;;;;;3.83;2.60;;;17.00;73.60;;;;;;5051356;28;20242;-73
2023/08/02 04:49:03;;;;;;;4.27;2.50;;;17.00;74.50;;;;;;5050674;28;20248;-73
2023/08/02 04:51:29;;;;;;;6.00;2.50;;;16.90;74.60;;;;;;5043746;28;20210;-74
2023/08/02 04:53:54;;;;;;;6.40;2.80;;;16.80;75.10;;;;;;5062727;28;20434;-74
2023/08/02 04:56:20;;;;;;;5.60;2.43;;;16.70;75.90;;;;;;5057157;28;20670;-75
2023/08/02 04:58:46;;;;;;;5.90;2.87;;;16.70;76.20;;;;;;5069161;28;20265;-75
2023/08/02 05:01:12;;;;;;;5.30;2.90;;;16.60;76.80;;;;;;5042255;28;20214;-73
2023/08/02 05:03:38;;;;;;;5.77;2.90;;;16.50;77.60;;;;;;5056354;28;20427;-74
2023/08/02 05:06:05;;;;;;;4.87;2.90;;;16.30;78.10;;;;;;5060517;28;20825;-74
2023/08/02 05:08:34;;;;;;;4.47;2.70;;;16.30;78.70;;;;;;5060724;28;20185;-74
2023/08/02 05:10:59;;;;;;;4.60;2.60;;;16.10;79.20;;;;;;5052274;28;20552;-75
2023/08/02 05:13:26;;;;;;;8.07;2.93;;;16.00;79.90;;;;;;5063438;28;20508;-75
2023/08/02 05:15:53;;;;;;;4.93;2.57;;;16.00;80.50;;;;;;5055403;28;20644;-74
2023/08/02 05:18:19;;;;;;;6.40;3.17;;;16.00;80.80;;;;;;5066834;28;20423;-73
2023/08/02 05:20:45;;;;;;;8.57;3.43;;;15.90;81.20;;;;;;5056855;28;20490;-74
2023/08/02 05:23:10;;;;;;;6.60;3.30;;;15.90;81.90;;;;;;5052264;28;20181;-74
2023/08/02 05:25:36;;;;;;;6.90;3.10;;;15.80;82.10;;;;;;5058587;28;20271;-74
2023/08/02 05:28:02;;;;;;;8.10;3.43;;;15.70;82.80;;;;;;5051564;28;20203;-74
2023/08/02 05:30:29;;;;;;;9.20;3.80;;;15.70;82.80;;;;;;5056622;28;20205;-76
2023/08/02 05:32:55;;;;;;;5.70;3.60;;;15.70;83.60;;;;;;5068070;28;20520;-75
2023/08/02 05:35:21;;;;;;;5.30;3.03;;;15.60;83.70;;;;;;5057820;28;20470;-75
2023/08/02 05:37:47;;;;;;;6.33;3.30;;;15.60;84.00;;;;;;5068409;28;20212;-75
2023/08/02 05:40:13;;;;;;;8.03;4.00;;;15.60;84.40;;;;;;5053472;28;21383;-75
2023/08/02 05:42:39;;;;;;;6.87;3.73;;;15.60;84.60;;;;;;5055611;28;20590;-76
2023/08/02 05:45:05;;;;;;;5.30;3.23;;;15.60;84.90;;;;;;5054378;28;20234;-75
2023/08/02 05:47:31;;;;;;;8.23;3.70;;;15.70;85.20;;;;;;5062529;28;20275;-74
2023/08/02 05:49:57;;;;;;;5.37;3.30;;;15.70;85.20;;;;;;5050157;28;20876;-73
2023/08/02 05:52:22;;;;;;;5.20;3.20;;;15.70;85.00;;;;;;5048210;28;20453;-75
2023/08/02 05:54:48;;;;;;;6.73;3.77;;;15.70;85.00;;;;;;5056202;28;20804;-75
2023/08/02 05:57:13;;;;;;;6.60;3.60;;;15.80;85.50;;;;;;5062514;28;21010;-74
2023/08/02 05:59:39;;;;;;;6.90;3.63;;;15.80;85.30;;;;;;5060213;28;20226;-76
2023/08/02 06:02:06;;;;;;;9.10;4.03;;;15.80;85.50;;;;;;5045687;28;20232;-75
2023/08/02 06:04:35;;;;;;;6.33;3.63;;;15.90;85.70;;;;;;5053892;28;20250;-75
2023/08/02 06:07:01;;;;;;;9.77;3.80;;;15.90;85.30;;;;;;5050847;28;20502;-75
2023/08/02 06:09:27;;;;;;;7.37;3.87;;;16.00;85.50;;;;;;5050198;28;20865;-76
2023/08/02 06:11:52;;;;;;;6.57;3.53;;;15.90;85.20;;;;;;5044073;28;20626;-75
2023/08/02 06:14:18;;;;;;;8.40;4.40;;;15.90;85.20;;;;;;5057116;28;20191;-75
2023/08/02 06:16:43;;;;;;;8.97;4.13;;;15.90;85.20;;;;;;5061435;28;20185;-75
2023/08/02 06:19:09;;;;;;;8.33;4.07;;;16.00;85.50;;;;;;5058572;28;20303;-73
2023/08/02 06:21:36;;;;;;;6.83;4.40;;;16.00;85.60;;;;;;5049823;28;20191;-72
2023/08/02 06:24:01;;;;;;;9.80;4.30;;;16.00;85.50;;;;;;5060589;28;20186;-72
2023/08/02 06:26:27;;;;;;;6.20;4.10;;;16.00;85.20;;;;;;5059292;28;20446;-71
2023/08/02 06:28:53;;;;;;;8.70;4.00;;;15.90;85.60;;;;;;5053607;28;20206;-74
2023/08/02 06:31:20;;;;;;;5.97;3.90;;;15.90;86.00;;;;;;5051378;28;20636;-72
2023/08/02 06:33:45;;;;;;;12.97;4.77;;;16.00;86.30;;;;;;5056166;28;20935;-71
2023/08/02 06:36:11;;;;;;;10.90;5.83;;;16.10;86.20;;;;;;5053807;28;20438;-72
2023/08/02 06:38:36;;;;;;;9.30;4.80;;;16.20;86.00;;;;;;5053305;28;20262;-71
2023/08/02 06:41:03;;;;;;;5.90;3.90;;;16.30;86.20;;;;;;5049707;28;20621;-72
2023/08/02 06:43:28;;;;;;;8.13;4.40;;;16.30;85.60;;;;;;5064222;28;20242;-73
2023/08/02 06:45:54;;;;;;;8.50;4.20;;;16.40;85.00;;;;;;5054187;28;20433;-73
2023/08/02 06:48:23;;;;;;;6.03;3.97;;;16.40;85.00;;;;;;5067637;28;20266;-73
2023/08/02 06:50:49;;;;;;;11.63;4.47;;;16.40;85.00;;;;;;5046250;28;20286;-73
2023/08/02 06:53:15;;;;;;;11.57;5.03;;;16.40;85.00;;;;;;5055798;28;20452;-73
2023/08/02 06:55:41;;;;;;;12.37;5.63;;;16.50;85.30;;;;;;5051864;28;20442;-72
2023/08/02 06:58:06;;;;;;;11.23;4.77;;;16.60;84.90;;;;;;5053827;28;20278;-73
2023/08/02 07:00:35;;;;;;;15.47;7.03;;;16.70;84.70;;;;;;5046260;28;20236;-72
2023/08/02 07:03:05;;;;;;;11.60;6.43;;;16.70;84.30;;;;;;5052413;28;20211;-72
2023/08/02 07:05:31;;;;;;;10.80;5.83;;;16.80;84.40;;;;;;5054568;28;20478;-73
2023/08/02 07:07:57;;;;;;;9.97;5.47;;;16.90;84.00;;;;;;5051728;28;21074;-73
2023/08/02 07:10:24;;;;;;;11.43;6.23;;;16.90;83.80;;;;;;5046371;28;20692;-73
2023/08/02 07:12:50;;;;;;;8.07;4.80;;;17.00;84.10;;;;;;5049571;28;20435;-73
2023/08/02 07:15:17;;;;;;;9.67;5.20;;;17.00;84.10;;;;;;5054792;28;20441;-72
2023/08/02 07:17:44;;;;;;;11.63;5.73;;;17.10;83.30;;;;;;5050841;28;20199;-73
2023/08/02 07:20:13;;;;;;;8.27;5.37;;;17.20;83.10;;;;;;5046794;28;21050;-73
2023/08/02 07:22:40;;;;;;;10.30;5.37;;;17.20;82.70;;;;;;5049382;28;20419;-72
2023/08/02 07:25:06;;;;;;;9.47;5.90;;;17.10;82.70;;;;;;5066121;28;20440;-74
2023/08/02 07:27:32;;;;;;;8.20;5.20;;;17.10;83.10;;;;;;5066681;28;20433;-72
2023/08/02 07:30:01;;;;;;;10.87;5.67;;;17.20;83.40;;;;;;5059777;28;20234;-73
2023/08/02 07:32:26;;;;;;;12.63;5.30;;;17.40;83.80;;;;;;5052198;28;20457;-71
2023/08/02 07:34:52;;;;;;;9.27;5.10;;;17.60;83.00;;;;;;5049949;28;20436;-73
2023/08/02 07:37:18;;;;;;;7.80;4.37;;;17.60;82.20;;;;;;5051820;28;20192;-74
2023/08/02 07:39:44;;;;;;;11.43;5.40;;;17.70;81.20;;;;;;5053245;28;20236;-73
2023/08/02 07:42:10;;;;;;;7.80;4.60;;;17.70;80.90;;;;;;5042373;28;20462;-73
2023/08/02 07:44:37;;;;;;;9.37;4.80;;;17.60;80.90;;;;;;5052382;28;20191;-72
2023/08/02 07:47:03;;;;;;;9.17;5.40;;;17.70;81.50;;;;;;5050255;28;20477;-72
2023/08/02 07:49:30;;;;;;;9.20;4.50;;;17.70;81.80;;;;;;5049668;28;20439;-72
2023/08/02 07:51:56;;;;;;;8.17;4.73;;;17.80;81.90;;;;;;5041617;28;20459;-71
2023/08/02 07:54:21;;;;;;;9.30;4.70;;;17.80;81.50;;;;;;5063576;28;20959;-72
2023/08/02 07:56:47;;;;;;;9.20;4.83;;;17.80;81.90;;;;;;5062666;28;20185;-72
2023/08/02 07:59:13;;;;;;;7.87;4.80;;;17.90;81.80;;;;;;5049152;28;20220;-72
2023/08/02 08:01:42;;;;;;;7.90;4.40;;;17.90;82.10;;;;;;5043233;28;20262;-72
2023/08/02 08:04:07;;;;;;;8.37;4.33;;;17.80;81.90;;;;;;5056524;28;20227;-72
2023/08/02 08:06:33;;;;;;;10.10;5.10;;;17.70;82.20;;;;;;5050240;28;20828;-72
2023/08/02 08:08:59;;;;;;;8.00;4.40;;;17.50;82.10;;;;;;5050933;28;20200;-74
2023/08/02 08:11:27;;;;;;;10.73;5.63;;;17.40;83.10;;;;;;5046254;28;20239;-73
2023/08/02 08:13:53;;;;;;;7.83;4.53;;;17.40;84.10;;;;;;5049577;28;20219;-74
2023/08/02 08:16:18;;;;;;;7.80;4.10;;;17.30;84.30;;;;;;5048323;28;20531;-73
2023/08/02 08:18:44;;;;;;;5.50;3.97;;;17.20;84.30;;;;;;5049585;28;20897;-72
2023/08/02 08:21:10;;;;;;;6.57;3.57;;;17.20;84.70;;;;;;5054408;28;20284;-72
2023/08/02 08:23:36;;;;;;;6.97;3.77;;;17.20;84.70;;;;;;5055474;28;20212;-73
2023/08/02 08:26:02;;;;;;;6.67;4.10;;;17.30;84.90;;;;;;5051882;28;20475;-72
2023/08/02 08:28:28;;;;;;;6.47;4.10;;;17.30;84.30;;;;;;5050823;28;20249;-72
2023/08/02 08:31:01;;;;;;;5.77;3.50;;;17.40;84.30;;;;;;5042743;28;20223;-73
2023/08/02 08:33:30;;;;;;;7.83;3.23;;;17.50;84.10;;;;;;5051891;28;20434;-72
2023/08/02 08:35:56;;;;;;;7.43;4.17;;;17.50;83.70;;;;;;5058601;28;20420;-73
2023/08/02 08:38:22;;;;;;;7.00;3.60;;;17.60;83.30;;;;;;5049345;28;20435;-72
2023/08/02 08:40:52;;;;;;;5.93;3.03;;;17.70;83.10;;;;;;5045582;28;20488;-72
2023/08/02 08:43:28;;;;;;;5.77;3.30;;;17.70;83.60;;;;;;5051799;28;20285;-72
2023/08/02 08:45:54;;;;;;;7.13;3.03;;;17.80;83.70;;;;;;5061366;28;20430;-74
2023/08/02 08:48:21;;;;;;;5.37;3.00;;;17.80;83.60;;;;;;5048949;28;20445;-72
2023/08/02 08:50:49;;;;;;;4.10;2.80;;;17.80;83.70;;;;;;5045443;28;20469;-73
2023/08/02 08:53:21;;;;;;;6.23;2.80;;;17.80;84.00;;;;;;5049874;28;20565;-72
2023/08/02 08:55:51;;;;;;;4.93;2.90;;;17.70;83.80;;;;;;5052551;28;20435;-72
2023/08/02 08:58:18;;;;;;;8.70;3.53;;;17.70;84.10;;;;;;5062021;28;20431;-71
2023/08/02 09:00:44;;;;;;;4.97;3.00;;;17.70;84.40;;;;;;5060504;28;20496;-74
2023/08/02 09:03:12;;;;;;;5.93;3.13;;;17.70;84.60;;;;;;5050694;28;21094;-72
2023/08/02 09:05:40;;;;;;;6.10;2.90;;;17.70;84.70;;;;;;5062843;28;20498;-73
2023/08/02 09:08:06;;;;;;;5.73;3.40;;;17.70;85.30;;;;;;5064959;28;20466;-72
2023/08/02 09:10:32;;;;;;;5.00;2.97;;;17.70;85.30;;;;;;5058626;28;21007;-72
2023/08/02 09:12:58;;;;;;;5.93;3.20;;;17.70;85.50;;;;;;5059542;28;20199;-72
2023/08/02 09:15:24;;;;;;;5.27;3.07;;;17.70;85.20;;;;;;5052475;28;20472;-72
2023/08/02 09:17:54;;;;;;;5.33;3.30;;;17.70;85.20;;;;;;5054829;28;20220;-73
2023/08/02 09:20:25;;;;;;;4.87;3.47;;;17.80;85.30;;;;;;5048864;28;20498;-72
2023/08/02 09:22:51;;;;;;;5.57;2.83;;;17.80;85.00;;;;;;5050092;28;20430;-72
2023/08/02 09:25:27;;;;;;;6.60;3.40;;;17.80;85.20;;;;;;5052309;28;20538;-72
2023/08/02 09:27:56;;;;;;;7.13;3.50;;;17.90;85.60;;;;;;5052445;28;20211;-72
2023/08/02 09:30:25;;;;;;;5.67;3.20;;;17.80;85.60;;;;;;5045140;28;20526;-72
2023/08/02 09:33:07;;;;;;;5.97;3.50;;;17.90;85.60;;;;;;5051512;28;20440;-73
2023/08/02 09:35:45;;;;;;;12.67;3.70;;;17.90;85.00;;;;;;5060077;28;20547;-72
2023/08/02 09:38:10;;;;;;;6.77;3.90;;;18.00;85.20;;;;;;5050078;28;20419;-73
2023/08/02 09:40:38;;;;;;;7.10;3.63;;;18.00;84.60;;;;;;5047538;28;20482;-73
2023/08/02 09:43:04;;;;;;;6.70;3.43;;;18.10;84.10;;;;;;5049880;28;20211;-73
2023/08/02 09:45:34;;;;;;;6.13;3.80;;;18.20;83.40;;;;;;5056618;28;20442;-73
2023/08/02 09:48:00;;;;;;;7.13;3.20;;;18.30;83.60;;;;;;5053301;28;20430;-72
2023/08/02 09:50:27;;;;;;;5.13;3.57;;;18.40;83.00;;;;;;5053907;28;20465;-73
2023/08/02 09:52:53;;;;;;;6.50;3.17;;;18.50;82.40;;;;;;5051875;28;20563;-72
2023/08/02 09:55:18;;;;;;;5.00;3.47;;;18.60;82.40;;;;;;5059822;28;20510;-72
2023/08/02 09:57:47;;;;;;;8.17;3.43;;;18.70;82.40;;;;;;5061586;28;20565;-73
2023/08/02 10:00:13;;;;;;;6.17;3.60;;;18.80;82.10;;;;;;5064589;28;20226;-73
2023/08/02 10:02:41;;;;;;;6.17;3.87;;;18.90;81.80;;;;;;5057741;28;20501;-72
2023/08/02 10:05:09;;;;;;;9.87;4.10;;;18.90;81.90;;;;;;5061522;28;20969;-72
2023/08/02 10:07:54;;;;;;;6.70;3.87;;;19.00;81.70;;;;;;5062445;28;20418;-73
2023/08/02 10:10:25;;;;;;;7.80;3.97;;;19.10;80.80;;;;;;5040854;28;20581;-73
2023/08/02 10:13:08;;;;;;;9.90;4.10;;;19.20;80.90;;;;;;5049674;28;20434;-73
2023/08/02 10:15:35;;;;;;;6.43;4.30;;;19.40;80.50;;;;;;5059259;28;20427;-73
2023/08/02 10:18:01;;;;;;;6.90;4.00;;;19.50;80.20;;;;;;5053802;28;20443;-72
2023/08/02 10:20:29;;;;;;;6.87;3.90;;;19.50;79.90;;;;;;5046029;28;20483;-73
2023/08/02 10:22:55;;;;;;;8.30;4.97;;;19.60;79.70;;;;;;5053974;28;20502;-73
2023/08/02 10:25:22;;;;;;;6.50;4.20;;;19.50;79.60;;;;;;5053984;28;20439;-73
2023/08/02 10:27:49;;;;;;;9.20;4.60;;;19.40;80.50;;;;;;5053578;28;20425;-73
2023/08/02 10:30:14;;;;;;;8.70;5.10;;;19.30;81.40;;;;;;5047361;28;20643;-73
2023/08/02 10:32:40;;;;;;;8.07;4.40;;;19.30;81.90;;;;;;5057110;28;20982;-73
2023/08/02 10:35:06;;;;;;;8.73;5.00;;;19.30;82.40;;;;;;5050073;28;20195;-73
2023/08/02 10:37:52;;;;;;;11.83;4.67;;;19.20;82.80;;;;;;5050361;28;20181;-74
2023/08/02 10:40:21;;;;;;;9.40;4.63;;;19.20;83.00;;;;;;5041129;28;20231;-73
2023/08/02 10:43:06;;;;;;;9.60;4.50;;;19.20;83.10;;;;;;5052656;28;22017;-74
2023/08/02 10:45:33;;;;;;;7.97;4.37;;;19.20;82.70;;;;;;5056594;28;20500;-73
2023/08/02 10:48:21;;;;;;;7.90;3.90;;;19.10;82.40;;;;;;5062450;28;20449;-73
2023/08/02 10:50:48;;;;;;;11.30;5.23;;;19.10;82.50;;;;;;5043404;28;20478;-73
2023/08/02 10:53:14;;;;;;;6.50;4.70;;;19.20;81.80;;;;;;5049674;28;20452;-73
2023/08/02 10:56:01;;;;;;;7.27;4.30;;;19.20;81.20;;;;;;5055944;28;20431;-73
2023/08/02 10:58:27;;;;;;;6.83;4.30;;;19.30;80.60;;;;;;5064584;28;20184;-74
2023/08/02 11:01:10;;;;;;;8.60;4.60;;;19.50;80.60;;;;;;5045683;28;20566;-73
2023/08/02 11:03:37;;;;;;;6.77;4.00;;;19.60;80.00;;;;;;5051038;28;20260;-73
2023/08/02 11:06:03;;;;;;;9.07;4.80;;;19.70;79.50;;;;;;5062911;28;20767;-73
2023/08/02 11:08:28;;;;;;;8.67;4.67;;;19.90;79.00;;;;;;5055207;28;20954;-74
2023/08/02 11:10:55;;;;;;;10.73;4.10;;;20.00;78.60;;;;;;5050009;28;20200;-73
2023/08/02 11:13:23;;;;;;;12.17;5.80;;;20.10;78.00;;;;;;5058721;28;20187;-73
2023/08/02 11:16:02;;;;;;;7.67;4.93;;;20.10;78.30;;;;;;5061108;28;20484;-74
2023/08/02 11:18:31;;;;;;;7.17;4.77;;;20.20;78.30;;;;;;5053283;28;20492;-73
2023/08/02 11:21:12;;;;;;;9.83;4.60;;;20.20;77.80;;;;;;5046700;28;20521;-74
2023/08/02 11:23:38;;;;;;;7.63;4.63;;;20.30;77.10;;;;;;5058933;28;20435;-73
2023/08/02 11:26:11;;;;;;;7.43;4.00;;;20.40;77.10;;;;;;5052990;28;20431;-76
2023/08/02 11:28:43;;;;;;;6.63;4.20;;;20.50;77.10;;;;;;5052384;28;20193;-73
2023/08/02 11:31:09;;;;;;;6.60;4.07;;;20.80;76.20;;;;;;5041881;28;20459;-74
2023/08/02 11:33:37;;;;;;;7.77;5.00;;;21.00;75.70;;;;;;5057570;28;20421;-72
2023/08/02 11:36:03;;;;;;;7.00;4.20;;;21.20;74.90;;;;;;5052577;28;20440;-73
2023/08/02 11:38:29;;;;;;;9.97;4.70;;;21.40;74.20;;;;;;5063511;28;20890;-73
2023/08/02 11:40:55;;;;;;;6.67;4.20;;;21.60;73.30;;;;;;5052724;28;20602;-73
2023/08/02 11:43:37;;;;;;;6.87;4.00;;;21.90;72.70;;;;;;5062567;28;20572;-73
2023/08/02 11:46:35;;;;;;;8.13;4.53;;;22.30;71.30;;;;;;5060220;28;20797;-73
2023/08/02 11:49:07;;;;;;;6.77;4.17;;;22.60;70.20;;;;;;4966925;28;20808;-73
2023/08/02 11:51:39;;;;;;;7.07;4.20;;;23.00;69.90;;;;;;4957972;28;20511;-73
2023/08/02 11:54:07;;;;;;;5.37;3.77;;;23.50;68.90;;;;;;4958564;28;20447;-72
2023/08/02 11:56:33;;;;;;;6.87;3.80;;;23.90;67.50;;;;;;4962455;28;20443;-73
2023/08/02 11:58:59;;;;;;;6.57;3.97;;;24.10;66.40;;;;;;4952099;28;20438;-73
2023/08/02 12:01:24;;;;;;;7.80;4.40;;;24.20;65.80;;;;;;4948862;28;20228;-73
2023/08/02 12:03:55;;;;;;;5.77;4.00;;;24.10;66.40;;;;;;4952320;28;20456;-73
2023/08/02 12:06:21;;;;;;;6.30;3.90;;;24.30;66.30;;;;;;4951932;28;20660;-73
2023/08/02 12:08:57;;;;;;;4.67;3.40;;;24.10;66.10;;;;;;4951511;28;20434;-72
2023/08/02 12:11:26;;;;;;;6.80;4.43;;;24.00;66.90;;;;;;4943914;28;20989;-72
2023/08/02 12:13:52;;;;;;;6.47;3.90;;;24.20;67.20;;;;;;4954386;28;20809;-72
2023/08/02 12:16:18;;;;;;;4.87;3.33;;;24.20;66.70;;;;;;4956963;28;20467;-72
2023/08/02 12:18:53;;;;;;;6.07;3.90;;;24.40;66.10;;;;;;4968035;28;20732;-73
2023/08/02 12:21:19;;;;;;;6.63;4.00;;;24.60;65.80;;;;;;4952953;28;20521;-73
2023/08/02 12:23:45;;;;;;;6.83;4.53;;;24.60;65.70;;;;;;4975331;28;20474;-73
2023/08/02 12:26:11;;;;;;;19.40;4.20;;;24.70;65.40;;;;;;5067810;28;20447;-73
2023/08/02 12:28:46;;;;;;;7.03;4.10;;;25.20;63.90;;;;;;5066974;28;20279;-74
2023/08/02 12:31:13;;;;;;;5.20;3.70;;;25.40;64.10;;;;;;5049856;28;20217;-73
2023/08/02 12:33:38;;;;;;;6.93;3.80;;;25.80;63.40;;;;;;5057961;28;21224;-73
2023/08/02 12:36:04;;;;;;;7.50;4.10;;;26.30;62.50;;;;;;5056564;28;20434;-73
2023/08/02 12:38:31;;;;;;;7.90;3.37;;;26.80;60.30;;;;;;5055051;28;20211;-74
2023/08/02 12:40:57;;;;;;;4.90;3.00;;;27.30;59.60;;;;;;5047280;28;20299;-73
2023/08/02 12:43:23;;;;;;;7.93;3.53;;;27.20;59.30;;;;;;5058691;28;20487;-73
2023/08/02 12:45:49;;;;;;;6.07;3.47;;;26.70;60.90;;;;;;5066565;28;20440;-73